sensor_id;sensor_type;location;lat;lon;timestamp;P1;durP1;ratioP1;P2;durP2;ratioP2
13034;SDS011;6584;48.022;11.810;2022-07-29T00:01:05;1.98;;;1.80;;
13034;SDS011;6584;48.022;11.810;2022-07-29T00:03:31;2.75;;;2.17;;
13034;SDS011;6584;48.022;11.810;2022-07-29T00:05:56;2.55;;;1.77;;
13034;SDS011;6584;48.022;11.810;2022-07-29T00:08:22;2.20;;;2.00;;
13034;SDS011;6584;48.022;11.810;2022-07-29T00:10:47;1.80;;;1.70;;
13034;SDS011;6584;48.022;11.810;2022-07-29T00:13:13;2.00;;;1.90;;
13034;SDS011;6584;48.022;11.810;2022-07-29T00:15:39;2.08;;;1.90;;
13034;SDS011;6584;48.022;11.810;2022-07-29T00:18:04;5.22;;;2.10;;
13034;SDS011;6584;48.022;11.810;2022-07-29T00:20:30;1.80;;;1.70;;
13034;SDS011;6584;48.022;11.810;2022-07-29T00:22:55;3.65;;;1.98;;
13034;SDS011;6584;48.022;11.810;2022-07-29T00:25:21;2.80;;;1.95;;
13034;SDS011;6584;48.022;11.810;2022-07-29T00:27:47;2.70;;;2.00;;
13034;SDS011;6584;48.022;11.810;2022-07-29T00:30:12;1.83;;;1.73;;
13034;SDS011;6584;48.022;11.810;2022-07-29T00:32:38;2.17;;;1.90;;
13034;SDS011;6584;48.022;11.810;2022-07-29T00:35:04;1.85;;;1.75;;
13034;SDS011;6584;48.022;11.810;2022-07-29T00:37:49;2.15;;;1.70;;
13034;SDS011;6584;48.022;11.810;2022-07-29T00:40:14;2.65;;;1.73;;
13034;SDS011;6584;48.022;11.810;2022-07-29T00:42:44;2.30;;;1.60;;
13034;SDS011;6584;48.022;11.810;2022-07-29T00:45:10;1.80;;;1.70;;
13034;SDS011;6584;48.022;11.810;2022-07-29T00:47:37;1.88;;;1.73;;
13034;SDS011;6584;48.022;11.810;2022-07-29T00:50:03;1.88;;;1.70;;
13034;SDS011;6584;48.022;11.810;2022-07-29T00:52:31;2.60;;;1.55;;
13034;SDS011;6584;48.022;11.810;2022-07-29T00:54:58;1.80;;;1.70;;
13034;SDS011;6584;48.022;11.810;2022-07-29T00:57:24;1.92;;;1.70;;
13034;SDS011;6584;48.022;11.810;2022-07-29T00:59:49;1.80;;;1.70;;
13034;SDS011;6584;48.022;11.810;2022-07-29T01:02:15;2.10;;;1.90;;
13034;SDS011;6584;48.022;11.810;2022-07-29T01:04:40;2.40;;;2.20;;
13034;SDS011;6584;48.022;11.810;2022-07-29T01:07:06;2.33;;;2.00;;
13034;SDS011;6584;48.022;11.810;2022-07-29T01:09:32;3.50;;;2.33;;
13034;SDS011;6584;48.022;11.810;2022-07-29T01:11:58;2.40;;;2.20;;
13034;SDS011;6584;48.022;11.810;2022-07-29T01:14:25;3.03;;;2.20;;
13034;SDS011;6584;48.022;11.810;2022-07-29T01:16:51;2.20;;;2.00;;
13034;SDS011;6584;48.022;11.810;2022-07-29T01:22:19;2.17;;;2.03;;
13034;SDS011;6584;48.022;11.810;2022-07-29T01:25:03;2.58;;;2.10;;
13034;SDS011;6584;48.022;11.810;2022-07-29T01:30:32;1.80;;;1.70;;
13034;SDS011;6584;48.022;11.810;2022-07-29T01:33:02;2.08;;;1.95;;
13034;SDS011;6584;48.022;11.810;2022-07-29T01:35:57;1.83;;;1.73;;
13034;SDS011;6584;48.022;11.810;2022-07-29T01:38:24;2.05;;;1.88;;
13034;SDS011;6584;48.022;11.810;2022-07-29T01:40:52;1.67;;;1.58;;
13034;SDS011;6584;48.022;11.810;2022-07-29T01:43:34;1.70;;;1.60;;
13034;SDS011;6584;48.022;11.810;2022-07-29T01:46:06;2.08;;;1.90;;
13034;SDS011;6584;48.022;11.810;2022-07-29T01:48:48;2.08;;;1.88;;
13034;SDS011;6584;48.022;11.810;2022-07-29T01:53:55;1.90;;;1.80;;
13034;SDS011;6584;48.022;11.810;2022-07-29T01:56:37;2.03;;;1.77;;
13034;SDS011;6584;48.022;11.810;2022-07-29T01:59:04;3.72;;;1.88;;
13034;SDS011;6584;48.022;11.810;2022-07-29T02:01:32;1.90;;;1.80;;
13034;SDS011;6584;48.022;11.810;2022-07-29T02:03:59;1.70;;;1.60;;
13034;SDS011;6584;48.022;11.810;2022-07-29T02:06:29;2.05;;;1.73;;
13034;SDS011;6584;48.022;11.810;2022-07-29T02:08:57;1.80;;;1.70;;
13034;SDS011;6584;48.022;11.810;2022-07-29T02:11:24;1.70;;;1.60;;
13034;SDS011;6584;48.022;11.810;2022-07-29T02:13:51;1.88;;;1.70;;
13034;SDS011;6584;48.022;11.810;2022-07-29T02:16:20;1.65;;;1.55;;
13034;SDS011;6584;48.022;11.810;2022-07-29T02:18:47;1.73;;;1.63;;
13034;SDS011;6584;48.022;11.810;2022-07-29T02:21:16;3.70;;;1.70;;
13034;SDS011;6584;48.022;11.810;2022-07-29T02:23:47;1.77;;;1.67;;
13034;SDS011;6584;48.022;11.810;2022-07-29T02:26:14;2.10;;;2.00;;
13034;SDS011;6584;48.022;11.810;2022-07-29T02:28:41;1.92;;;1.80;;
13034;SDS011;6584;48.022;11.810;2022-07-29T02:31:08;2.10;;;1.90;;
13034;SDS011;6584;48.022;11.810;2022-07-29T02:33:34;1.90;;;1.80;;
13034;SDS011;6584;48.022;11.810;2022-07-29T02:36:01;2.85;;;2.10;;
13034;SDS011;6584;48.022;11.810;2022-07-29T02:38:27;2.08;;;1.80;;
13034;SDS011;6584;48.022;11.810;2022-07-29T02:41:15;2.28;;;1.80;;
13034;SDS011;6584;48.022;11.810;2022-07-29T02:43:45;2.17;;;1.98;;
13034;SDS011;6584;48.022;11.810;2022-07-29T02:46:14;1.85;;;1.75;;
13034;SDS011;6584;48.022;11.810;2022-07-29T02:48:51;2.17;;;1.98;;
13034;SDS011;6584;48.022;11.810;2022-07-29T02:51:55;2.40;;;2.20;;
13034;SDS011;6584;48.022;11.810;2022-07-29T02:54:58;2.30;;;2.20;;
13034;SDS011;6584;48.022;11.810;2022-07-29T02:57:31;2.03;;;1.88;;
13034;SDS011;6584;48.022;11.810;2022-07-29T02:59:59;2.22;;;1.90;;
13034;SDS011;6584;48.022;11.810;2022-07-29T03:02:29;2.10;;;2.00;;
13034;SDS011;6584;48.022;11.810;2022-07-29T03:05:08;2.40;;;2.10;;
13034;SDS011;6584;48.022;11.810;2022-07-29T03:07:37;2.08;;;1.98;;
13034;SDS011;6584;48.022;11.810;2022-07-29T03:10:06;2.10;;;1.98;;
13034;SDS011;6584;48.022;11.810;2022-07-29T03:12:33;2.55;;;1.88;;
13034;SDS011;6584;48.022;11.810;2022-07-29T03:15:00;1.85;;;1.75;;
13034;SDS011;6584;48.022;11.810;2022-07-29T03:17:26;1.80;;;1.70;;
13034;SDS011;6584;48.022;11.810;2022-07-29T03:19:52;2.00;;;1.90;;
13034;SDS011;6584;48.022;11.810;2022-07-29T03:22:18;2.42;;;2.10;;
13034;SDS011;6584;48.022;11.810;2022-07-29T03:24:44;3.22;;;1.70;;
13034;SDS011;6584;48.022;11.810;2022-07-29T03:27:10;1.85;;;1.75;;
13034;SDS011;6584;48.022;11.810;2022-07-29T03:29:35;3.20;;;1.90;;
13034;SDS011;6584;48.022;11.810;2022-07-29T03:32:02;2.42;;;2.10;;
13034;SDS011;6584;48.022;11.810;2022-07-29T03:34:29;1.80;;;1.70;;
13034;SDS011;6584;48.022;11.810;2022-07-29T03:36:54;4.57;;;1.60;;
13034;SDS011;6584;48.022;11.810;2022-07-29T03:39:21;1.83;;;1.70;;
13034;SDS011;6584;48.022;11.810;2022-07-29T03:41:49;2.50;;;1.90;;
13034;SDS011;6584;48.022;11.810;2022-07-29T03:44:18;2.08;;;1.90;;
13034;SDS011;6584;48.022;11.810;2022-07-29T03:46:45;1.90;;;1.80;;
13034;SDS011;6584;48.022;11.810;2022-07-29T03:49:13;2.00;;;1.88;;
13034;SDS011;6584;48.022;11.810;2022-07-29T03:51:41;2.10;;;1.90;;
13034;SDS011;6584;48.022;11.810;2022-07-29T03:54:07;1.70;;;1.60;;
13034;SDS011;6584;48.022;11.810;2022-07-29T03:56:34;4.07;;;2.17;;
13034;SDS011;6584;48.022;11.810;2022-07-29T03:59:04;2.17;;;2.00;;
13034;SDS011;6584;48.022;11.810;2022-07-29T04:01:32;2.58;;;1.90;;
13034;SDS011;6584;48.022;11.810;2022-07-29T04:03:59;2.28;;;2.10;;
13034;SDS011;6584;48.022;11.810;2022-07-29T04:06:36;2.10;;;1.90;;
13034;SDS011;6584;48.022;11.810;2022-07-29T04:09:03;2.20;;;2.00;;
13034;SDS011;6584;48.022;11.810;2022-07-29T04:11:28;2.30;;;2.10;;
13034;SDS011;6584;48.022;11.810;2022-07-29T04:13:54;2.28;;;2.08;;
13034;SDS011;6584;48.022;11.810;2022-07-29T04:16:19;2.22;;;2.03;;
13034;SDS011;6584;48.022;11.810;2022-07-29T04:18:45;2.00;;;1.90;;
13034;SDS011;6584;48.022;11.810;2022-07-29T04:21:10;2.22;;;2.00;;
13034;SDS011;6584;48.022;11.810;2022-07-29T04:23:36;2.53;;;2.08;;
13034;SDS011;6584;48.022;11.810;2022-07-29T04:26:01;2.47;;;2.20;;
13034;SDS011;6584;48.022;11.810;2022-07-29T04:28:27;3.05;;;2.10;;
13034;SDS011;6584;48.022;11.810;2022-07-29T04:30:53;2.28;;;2.10;;
13034;SDS011;6584;48.022;11.810;2022-07-29T04:33:18;2.40;;;2.20;;
13034;SDS011;6584;48.022;11.810;2022-07-29T04:35:44;2.30;;;2.10;;
13034;SDS011;6584;48.022;11.810;2022-07-29T04:38:09;6.57;;;4.60;;
13034;SDS011;6584;48.022;11.810;2022-07-29T04:40:35;7.22;;;4.75;;
13034;SDS011;6584;48.022;11.810;2022-07-29T04:43:00;12.65;;;10.38;;
13034;SDS011;6584;48.022;11.810;2022-07-29T04:45:27;16.17;;;12.32;;
13034;SDS011;6584;48.022;11.810;2022-07-29T04:47:53;8.95;;;7.53;;
13034;SDS011;6584;48.022;11.810;2022-07-29T04:50:19;10.05;;;5.32;;
13034;SDS011;6584;48.022;11.810;2022-07-29T04:52:45;5.15;;;4.65;;
13034;SDS011;6584;48.022;11.810;2022-07-29T04:55:10;5.75;;;4.57;;
13034;SDS011;6584;48.022;11.810;2022-07-29T04:57:36;3.92;;;3.53;;
13034;SDS011;6584;48.022;11.810;2022-07-29T05:00:02;3.63;;;3.22;;
13034;SDS011;6584;48.022;11.810;2022-07-29T05:02:29;3.70;;;2.40;;
13034;SDS011;6584;48.022;11.810;2022-07-29T05:04:55;3.20;;;2.90;;
13034;SDS011;6584;48.022;11.810;2022-07-29T05:07:21;3.45;;;2.72;;
13034;SDS011;6584;48.022;11.810;2022-07-29T05:09:46;2.70;;;2.50;;
13034;SDS011;6584;48.022;11.810;2022-07-29T05:12:12;5.57;;;2.40;;
13034;SDS011;6584;48.022;11.810;2022-07-29T05:14:38;2.70;;;2.38;;
13034;SDS011;6584;48.022;11.810;2022-07-29T05:17:03;3.38;;;2.40;;
13034;SDS011;6584;48.022;11.810;2022-07-29T05:19:29;2.95;;;2.58;;
13034;SDS011;6584;48.022;11.810;2022-07-29T05:21:54;3.47;;;3.10;;
13034;SDS011;6584;48.022;11.810;2022-07-29T05:24:20;3.17;;;2.88;;
13034;SDS011;6584;48.022;11.810;2022-07-29T05:26:45;3.58;;;2.72;;
13034;SDS011;6584;48.022;11.810;2022-07-29T05:29:11;3.22;;;2.40;;
13034;SDS011;6584;48.022;11.810;2022-07-29T05:31:36;2.70;;;2.50;;
13034;SDS011;6584;48.022;11.810;2022-07-29T05:34:02;2.80;;;2.40;;
13034;SDS011;6584;48.022;11.810;2022-07-29T05:36:27;3.65;;;2.70;;
13034;SDS011;6584;48.022;11.810;2022-07-29T05:38:53;2.67;;;2.50;;
13034;SDS011;6584;48.022;11.810;2022-07-29T05:41:19;3.78;;;2.40;;
13034;SDS011;6584;48.022;11.810;2022-07-29T05:43:44;2.65;;;2.45;;
13034;SDS011;6584;48.022;11.810;2022-07-29T05:46:10;4.20;;;2.47;;
13034;SDS011;6584;48.022;11.810;2022-07-29T05:48:35;2.50;;;2.30;;
13034;SDS011;6584;48.022;11.810;2022-07-29T05:51:01;3.25;;;2.38;;
13034;SDS011;6584;48.022;11.810;2022-07-29T05:53:27;3.50;;;2.45;;
13034;SDS011;6584;48.022;11.810;2022-07-29T05:55:52;3.10;;;2.60;;
13034;SDS011;6584;48.022;11.810;2022-07-29T05:58:18;2.75;;;2.40;;
13034;SDS011;6584;48.022;11.810;2022-07-29T06:00:44;2.80;;;2.60;;
13034;SDS011;6584;48.022;11.810;2022-07-29T06:03:10;2.47;;;2.28;;
13034;SDS011;6584;48.022;11.810;2022-07-29T06:05:36;3.22;;;2.60;;
13034;SDS011;6584;48.022;11.810;2022-07-29T06:08:02;5.40;;;2.80;;
13034;SDS011;6584;48.022;11.810;2022-07-29T06:10:30;2.85;;;2.55;;
13034;SDS011;6584;48.022;11.810;2022-07-29T06:12:56;3.47;;;2.45;;
13034;SDS011;6584;48.022;11.810;2022-07-29T06:15:21;2.63;;;2.42;;
13034;SDS011;6584;48.022;11.810;2022-07-29T06:17:47;2.83;;;2.38;;
13034;SDS011;6584;48.022;11.810;2022-07-29T06:20:13;2.80;;;2.53;;
13034;SDS011;6584;48.022;11.810;2022-07-29T06:22:38;4.35;;;2.42;;
13034;SDS011;6584;48.022;11.810;2022-07-29T06:25:04;4.93;;;2.53;;
13034;SDS011;6584;48.022;11.810;2022-07-29T06:27:30;3.42;;;2.30;;
13034;SDS011;6584;48.022;11.810;2022-07-29T06:29:56;2.40;;;2.20;;
13034;SDS011;6584;48.022;11.810;2022-07-29T06:32:21;3.20;;;2.38;;
13034;SDS011;6584;48.022;11.810;2022-07-29T06:34:47;2.30;;;2.10;;
13034;SDS011;6584;48.022;11.810;2022-07-29T06:37:12;3.22;;;2.50;;
13034;SDS011;6584;48.022;11.810;2022-07-29T06:39:39;2.75;;;2.55;;
13034;SDS011;6584;48.022;11.810;2022-07-29T06:42:04;2.75;;;2.55;;
13034;SDS011;6584;48.022;11.810;2022-07-29T06:44:31;2.70;;;2.20;;
13034;SDS011;6584;48.022;11.810;2022-07-29T06:46:58;3.80;;;2.20;;
13034;SDS011;6584;48.022;11.810;2022-07-29T06:49:24;3.25;;;2.50;;
13034;SDS011;6584;48.022;11.810;2022-07-29T06:51:51;2.50;;;2.30;;
13034;SDS011;6584;48.022;11.810;2022-07-29T06:54:17;3.22;;;2.20;;
13034;SDS011;6584;48.022;11.810;2022-07-29T06:56:42;2.58;;;2.38;;
13034;SDS011;6584;48.022;11.810;2022-07-29T06:59:08;2.40;;;2.20;;
13034;SDS011;6584;48.022;11.810;2022-07-29T07:01:40;2.40;;;2.20;;
13034;SDS011;6584;48.022;11.810;2022-07-29T07:04:07;3.70;;;2.20;;
13034;SDS011;6584;48.022;11.810;2022-07-29T07:06:33;2.92;;;2.25;;
13034;SDS011;6584;48.022;11.810;2022-07-29T07:08:59;5.53;;;2.30;;
13034;SDS011;6584;48.022;11.810;2022-07-29T07:11:25;2.33;;;2.10;;
13034;SDS011;6584;48.022;11.810;2022-07-29T07:13:51;2.17;;;2.03;;
13034;SDS011;6584;48.022;11.810;2022-07-29T07:16:16;2.42;;;2.30;;
13034;SDS011;6584;48.022;11.810;2022-07-29T07:18:42;2.10;;;1.90;;
13034;SDS011;6584;48.022;11.810;2022-07-29T07:21:09;2.35;;;2.20;;
13034;SDS011;6584;48.022;11.810;2022-07-29T07:23:35;3.00;;;2.25;;
13034;SDS011;6584;48.022;11.810;2022-07-29T07:26:01;2.05;;;1.95;;
13034;SDS011;6584;48.022;11.810;2022-07-29T07:28:27;2.08;;;1.98;;
13034;SDS011;6584;48.022;11.810;2022-07-29T07:30:53;1.92;;;1.83;;
13034;SDS011;6584;48.022;11.810;2022-07-29T07:33:19;3.47;;;1.98;;
13034;SDS011;6584;48.022;11.810;2022-07-29T07:35:45;2.50;;;2.30;;
13034;SDS011;6584;48.022;11.810;2022-07-29T07:38:10;2.35;;;2.20;;
13034;SDS011;6584;48.022;11.810;2022-07-29T07:40:36;2.95;;;2.20;;
13034;SDS011;6584;48.022;11.810;2022-07-29T07:43:02;2.30;;;2.00;;
13034;SDS011;6584;48.022;11.810;2022-07-29T07:45:27;3.40;;;2.10;;
13034;SDS011;6584;48.022;11.810;2022-07-29T07:47:53;2.90;;;2.22;;
13034;SDS011;6584;48.022;11.810;2022-07-29T07:50:18;1.92;;;1.83;;
13034;SDS011;6584;48.022;11.810;2022-07-29T07:52:48;2.00;;;1.90;;
13034;SDS011;6584;48.022;11.810;2022-07-29T07:55:15;1.90;;;1.80;;
13034;SDS011;6584;48.022;11.810;2022-07-29T07:57:41;2.17;;;1.98;;
13034;SDS011;6584;48.022;11.810;2022-07-29T08:00:08;2.35;;;2.20;;
13034;SDS011;6584;48.022;11.810;2022-07-29T08:02:33;1.80;;;1.70;;
13034;SDS011;6584;48.022;11.810;2022-07-29T08:04:59;2.22;;;2.03;;
13034;SDS011;6584;48.022;11.810;2022-07-29T08:07:24;1.90;;;1.80;;
13034;SDS011;6584;48.022;11.810;2022-07-29T08:09:50;2.00;;;1.80;;
13034;SDS011;6584;48.022;11.810;2022-07-29T08:12:15;2.85;;;2.15;;
13034;SDS011;6584;48.022;11.810;2022-07-29T08:14:41;2.30;;;2.10;;
13034;SDS011;6584;48.022;11.810;2022-07-29T08:17:07;4.32;;;2.67;;
13034;SDS011;6584;48.022;11.810;2022-07-29T08:19:32;3.65;;;2.35;;
13034;SDS011;6584;48.022;11.810;2022-07-29T08:21:58;6.55;;;2.50;;
13034;SDS011;6584;48.022;11.810;2022-07-29T08:24:23;3.00;;;2.00;;
13034;SDS011;6584;48.022;11.810;2022-07-29T08:27:07;2.05;;;1.85;;
13034;SDS011;6584;48.022;11.810;2022-07-29T08:29:34;8.23;;;3.67;;
13034;SDS011;6584;48.022;11.810;2022-07-29T08:31:59;7.15;;;2.92;;
13034;SDS011;6584;48.022;11.810;2022-07-29T08:34:25;4.78;;;2.85;;
13034;SDS011;6584;48.022;11.810;2022-07-29T08:36:50;2.97;;;2.67;;
13034;SDS011;6584;48.022;11.810;2022-07-29T08:39:16;3.38;;;2.50;;
13034;SDS011;6584;48.022;11.810;2022-07-29T08:41:42;4.00;;;2.50;;
13034;SDS011;6584;48.022;11.810;2022-07-29T08:44:08;2.15;;;1.77;;
13034;SDS011;6584;48.022;11.810;2022-07-29T08:46:34;2.30;;;2.10;;
13034;SDS011;6584;48.022;11.810;2022-07-29T08:49:03;4.05;;;2.10;;
13034;SDS011;6584;48.022;11.810;2022-07-29T08:51:28;3.30;;;2.00;;
13034;SDS011;6584;48.022;11.810;2022-07-29T08:53:55;3.10;;;2.17;;
13034;SDS011;6584;48.022;11.810;2022-07-29T08:56:22;3.78;;;2.00;;
13034;SDS011;6584;48.022;11.810;2022-07-29T08:58:48;2.33;;;2.08;;
13034;SDS011;6584;48.022;11.810;2022-07-29T09:01:16;2.08;;;1.98;;
13034;SDS011;6584;48.022;11.810;2022-07-29T09:03:43;3.10;;;2.20;;
13034;SDS011;6584;48.022;11.810;2022-07-29T09:06:11;2.33;;;2.15;;
13034;SDS011;6584;48.022;11.810;2022-07-29T09:08:39;3.25;;;2.08;;
13034;SDS011;6584;48.022;11.810;2022-07-29T09:11:04;2.28;;;2.10;;
13034;SDS011;6584;48.022;11.810;2022-07-29T09:13:32;2.25;;;2.15;;
13034;SDS011;6584;48.022;11.810;2022-07-29T09:15:58;4.03;;;2.30;;
13034;SDS011;6584;48.022;11.810;2022-07-29T09:18:37;2.35;;;2.13;;
13034;SDS011;6584;48.022;11.810;2022-07-29T09:21:05;2.35;;;2.10;;
13034;SDS011;6584;48.022;11.810;2022-07-29T09:26:36;3.47;;;2.22;;
13034;SDS011;6584;48.022;11.810;2022-07-29T09:29:13;2.80;;;2.60;;
13034;SDS011;6584;48.022;11.810;2022-07-29T09:31:41;2.30;;;2.10;;
13034;SDS011;6584;48.022;11.810;2022-07-29T09:34:09;3.15;;;2.25;;
13034;SDS011;6584;48.022;11.810;2022-07-29T09:36:39;2.40;;;2.20;;
13034;SDS011;6584;48.022;11.810;2022-07-29T09:39:12;3.75;;;2.15;;
13034;SDS011;6584;48.022;11.810;2022-07-29T09:41:46;4.10;;;2.30;;
13034;SDS011;6584;48.022;11.810;2022-07-29T09:44:19;3.22;;;2.47;;
13034;SDS011;6584;48.022;11.810;2022-07-29T09:47:01;2.58;;;2.35;;
13034;SDS011;6584;48.022;11.810;2022-07-29T09:49:32;4.18;;;2.30;;
13034;SDS011;6584;48.022;11.810;2022-07-29T09:52:03;2.95;;;2.35;;
13034;SDS011;6584;48.022;11.810;2022-07-29T09:54:33;2.65;;;2.45;;
13034;SDS011;6584;48.022;11.810;2022-07-29T09:57:06;2.60;;;2.40;;
13034;SDS011;6584;48.022;11.810;2022-07-29T09:59:34;4.22;;;2.45;;
13034;SDS011;6584;48.022;11.810;2022-07-29T10:02:00;2.03;;;1.92;;
13034;SDS011;6584;48.022;11.810;2022-07-29T10:04:36;2.63;;;2.40;;
13034;SDS011;6584;48.022;11.810;2022-07-29T10:07:03;3.17;;;2.70;;
13034;SDS011;6584;48.022;11.810;2022-07-29T10:09:30;6.97;;;2.40;;
13034;SDS011;6584;48.022;11.810;2022-07-29T10:12:06;2.42;;;2.22;;
13034;SDS011;6584;48.022;11.810;2022-07-29T10:14:33;2.58;;;2.38;;
13034;SDS011;6584;48.022;11.810;2022-07-29T10:16:59;2.40;;;2.20;;
13034;SDS011;6584;48.022;11.810;2022-07-29T10:19:28;3.67;;;2.33;;
13034;SDS011;6584;48.022;11.810;2022-07-29T10:21:58;3.05;;;2.65;;
13034;SDS011;6584;48.022;11.810;2022-07-29T10:24:29;2.80;;;2.47;;
13034;SDS011;6584;48.022;11.810;2022-07-29T10:26:55;4.20;;;2.50;;
13034;SDS011;6584;48.022;11.810;2022-07-29T10:29:23;2.72;;;2.50;;
13034;SDS011;6584;48.022;11.810;2022-07-29T10:34:44;2.95;;;2.72;;
13034;SDS011;6584;48.022;11.810;2022-07-29T10:43:31;6.45;;;2.50;;
13034;SDS011;6584;48.022;11.810;2022-07-29T10:46:01;2.97;;;2.40;;
13034;SDS011;6584;48.022;11.810;2022-07-29T10:48:27;3.85;;;2.78;;
13034;SDS011;6584;48.022;11.810;2022-07-29T10:51:02;2.97;;;2.53;;
13034;SDS011;6584;48.022;11.810;2022-07-29T10:56:25;3.38;;;2.47;;
13034;SDS011;6584;48.022;11.810;2022-07-29T11:01:42;2.90;;;2.60;;
13034;SDS011;6584;48.022;11.810;2022-07-29T11:04:08;4.13;;;3.05;;
13034;SDS011;6584;48.022;11.810;2022-07-29T11:07:17;4.28;;;2.88;;
13034;SDS011;6584;48.022;11.810;2022-07-29T11:09:23;3.13;;;2.90;;
13034;SDS011;6584;48.022;11.810;2022-07-29T11:11:49;3.35;;;3.05;;
13034;SDS011;6584;48.022;11.810;2022-07-29T11:14:14;4.05;;;2.70;;
13034;SDS011;6584;48.022;11.810;2022-07-29T11:16:58;3.70;;;2.90;;
13034;SDS011;6584;48.022;11.810;2022-07-29T11:19:26;4.13;;;2.78;;
13034;SDS011;6584;48.022;11.810;2022-07-29T11:21:52;3.17;;;2.88;;
13034;SDS011;6584;48.022;11.810;2022-07-29T11:24:25;3.40;;;2.60;;
13034;SDS011;6584;48.022;11.810;2022-07-29T11:29:39;3.00;;;2.80;;
13034;SDS011;6584;48.022;11.810;2022-07-29T11:32:35;3.40;;;2.65;;
13034;SDS011;6584;48.022;11.810;2022-07-29T11:35:21;5.32;;;2.92;;
13034;SDS011;6584;48.022;11.810;2022-07-29T11:43:49;3.22;;;2.92;;
13034;SDS011;6584;48.022;11.810;2022-07-29T11:49:12;3.70;;;2.65;;
13034;SDS011;6584;48.022;11.810;2022-07-29T11:51:43;4.30;;;2.83;;
13034;SDS011;6584;48.022;11.810;2022-07-29T11:54:23;3.03;;;2.70;;
13034;SDS011;6584;48.022;11.810;2022-07-29T11:56:53;2.97;;;2.65;;
13034;SDS011;6584;48.022;11.810;2022-07-29T11:59:20;3.95;;;2.70;;
13034;SDS011;6584;48.022;11.810;2022-07-29T12:01:53;2.90;;;2.70;;
13034;SDS011;6584;48.022;11.810;2022-07-29T12:04:18;3.00;;;2.58;;
13034;SDS011;6584;48.022;11.810;2022-07-29T12:06:48;4.45;;;2.30;;
13034;SDS011;6584;48.022;11.810;2022-07-29T12:09:15;2.60;;;2.38;;
13034;SDS011;6584;48.022;11.810;2022-07-29T12:11:42;2.40;;;2.20;;
13034;SDS011;6584;48.022;11.810;2022-07-29T12:14:08;2.80;;;2.55;;
13034;SDS011;6584;48.022;11.810;2022-07-29T12:16:36;2.35;;;2.15;;
13034;SDS011;6584;48.022;11.810;2022-07-29T12:19:03;2.95;;;2.55;;
13034;SDS011;6584;48.022;11.810;2022-07-29T12:21:45;3.53;;;2.83;;
13034;SDS011;6584;48.022;11.810;2022-07-29T12:24:12;2.83;;;2.63;;
13034;SDS011;6584;48.022;11.810;2022-07-29T12:26:48;6.07;;;2.38;;
13034;SDS011;6584;48.022;11.810;2022-07-29T12:29:15;3.28;;;2.47;;
13034;SDS011;6584;48.022;11.810;2022-07-29T12:31:42;3.92;;;2.70;;
13034;SDS011;6584;48.022;11.810;2022-07-29T12:34:09;3.17;;;2.55;;
13034;SDS011;6584;48.022;11.810;2022-07-29T12:36:43;2.58;;;2.42;;
13034;SDS011;6584;48.022;11.810;2022-07-29T12:39:09;2.63;;;2.42;;
13034;SDS011;6584;48.022;11.810;2022-07-29T12:41:35;3.55;;;2.30;;
13034;SDS011;6584;48.022;11.810;2022-07-29T12:44:01;3.83;;;2.47;;
13034;SDS011;6584;48.022;11.810;2022-07-29T12:46:26;2.72;;;2.53;;
13034;SDS011;6584;48.022;11.810;2022-07-29T12:48:52;4.40;;;2.42;;
13034;SDS011;6584;48.022;11.810;2022-07-29T12:51:27;3.35;;;2.40;;
13034;SDS011;6584;48.022;11.810;2022-07-29T12:54:11;2.55;;;2.35;;
13034;SDS011;6584;48.022;11.810;2022-07-29T12:56:40;3.72;;;2.60;;
13034;SDS011;6584;48.022;11.810;2022-07-29T12:59:25;2.67;;;2.20;;
13034;SDS011;6584;48.022;11.810;2022-07-29T13:01:51;2.78;;;2.30;;
13034;SDS011;6584;48.022;11.810;2022-07-29T13:04:27;2.80;;;2.60;;
13034;SDS011;6584;48.022;11.810;2022-07-29T13:06:58;4.03;;;2.47;;
13034;SDS011;6584;48.022;11.810;2022-07-29T13:09:40;3.20;;;2.38;;
13034;SDS011;6584;48.022;11.810;2022-07-29T13:12:07;2.90;;;2.60;;
13034;SDS011;6584;48.022;11.810;2022-07-29T13:19:48;2.78;;;2.58;;
13034;SDS011;6584;48.022;11.810;2022-07-29T13:22:17;3.40;;;2.25;;
13034;SDS011;6584;48.022;11.810;2022-07-29T13:24:56;2.42;;;2.10;;
13034;SDS011;6584;48.022;11.810;2022-07-29T13:27:26;2.13;;;2.03;;
13034;SDS011;6584;48.022;11.810;2022-07-29T13:29:54;2.80;;;2.00;;
13034;SDS011;6584;48.022;11.810;2022-07-29T13:32:24;4.10;;;1.92;;
13034;SDS011;6584;48.022;11.810;2022-07-29T13:34:51;2.17;;;1.98;;
13034;SDS011;6584;48.022;11.810;2022-07-29T13:37:18;2.17;;;2.05;;
13034;SDS011;6584;48.022;11.810;2022-07-29T13:39:44;2.35;;;2.15;;
13034;SDS011;6584;48.022;11.810;2022-07-29T13:42:10;4.50;;;2.35;;
13034;SDS011;6584;48.022;11.810;2022-07-29T13:44:38;3.83;;;1.95;;
13034;SDS011;6584;48.022;11.810;2022-07-29T13:47:04;2.85;;;2.20;;
13034;SDS011;6584;48.022;11.810;2022-07-29T13:49:30;5.15;;;2.53;;
13034;SDS011;6584;48.022;11.810;2022-07-29T13:51:56;3.17;;;2.40;;
13034;SDS011;6584;48.022;11.810;2022-07-29T13:54:22;5.55;;;2.30;;
13034;SDS011;6584;48.022;11.810;2022-07-29T13:56:49;2.97;;;2.60;;
13034;SDS011;6584;48.022;11.810;2022-07-29T13:59:15;4.00;;;2.70;;
13034;SDS011;6584;48.022;11.810;2022-07-29T14:01:41;2.83;;;2.05;;
13034;SDS011;6584;48.022;11.810;2022-07-29T14:04:07;3.53;;;2.38;;
13034;SDS011;6584;48.022;11.810;2022-07-29T14:06:33;5.20;;;2.40;;
13034;SDS011;6584;48.022;11.810;2022-07-29T14:08:59;2.53;;;2.33;;
13034;SDS011;6584;48.022;11.810;2022-07-29T14:11:25;4.65;;;2.50;;
13034;SDS011;6584;48.022;11.810;2022-07-29T14:13:50;4.22;;;2.53;;
13034;SDS011;6584;48.022;11.810;2022-07-29T14:16:16;2.63;;;2.42;;
13034;SDS011;6584;48.022;11.810;2022-07-29T14:18:42;3.75;;;2.33;;
13034;SDS011;6584;48.022;11.810;2022-07-29T14:21:07;3.20;;;2.17;;
13034;SDS011;6584;48.022;11.810;2022-07-29T14:23:33;3.72;;;2.60;;
13034;SDS011;6584;48.022;11.810;2022-07-29T14:25:59;3.17;;;2.30;;
13034;SDS011;6584;48.022;11.810;2022-07-29T14:28:24;2.67;;;2.30;;
13034;SDS011;6584;48.022;11.810;2022-07-29T14:30:50;2.42;;;2.22;;
13034;SDS011;6584;48.022;11.810;2022-07-29T14:33:15;3.28;;;2.65;;
13034;SDS011;6584;48.022;11.810;2022-07-29T14:35:41;3.10;;;2.25;;
13034;SDS011;6584;48.022;11.810;2022-07-29T14:38:07;2.33;;;2.13;;
13034;SDS011;6584;48.022;11.810;2022-07-29T14:40:33;3.40;;;2.33;;
13034;SDS011;6584;48.022;11.810;2022-07-29T14:42:58;3.00;;;2.00;;
13034;SDS011;6584;48.022;11.810;2022-07-29T14:45:24;2.53;;;2.25;;
13034;SDS011;6584;48.022;11.810;2022-07-29T14:47:50;2.67;;;2.22;;
13034;SDS011;6584;48.022;11.810;2022-07-29T14:50:15;2.20;;;2.10;;
13034;SDS011;6584;48.022;11.810;2022-07-29T14:52:41;2.13;;;1.92;;
13034;SDS011;6584;48.022;11.810;2022-07-29T14:55:07;3.00;;;2.38;;
13034;SDS011;6584;48.022;11.810;2022-07-29T14:57:33;2.80;;;2.20;;
13034;SDS011;6584;48.022;11.810;2022-07-29T14:59:59;2.40;;;2.17;;
13034;SDS011;6584;48.022;11.810;2022-07-29T15:02:24;4.03;;;2.30;;
13034;SDS011;6584;48.022;11.810;2022-07-29T15:04:50;2.30;;;2.08;;
13034;SDS011;6584;48.022;11.810;2022-07-29T15:07:15;2.42;;;2.20;;
13034;SDS011;6584;48.022;11.810;2022-07-29T15:09:42;4.30;;;2.60;;
13034;SDS011;6584;48.022;11.810;2022-07-29T15:12:10;2.97;;;2.10;;
13034;SDS011;6584;48.022;11.810;2022-07-29T15:14:35;3.67;;;2.30;;
13034;SDS011;6584;48.022;11.810;2022-07-29T15:17:01;3.25;;;2.13;;
13034;SDS011;6584;48.022;11.810;2022-07-29T15:19:26;2.67;;;2.47;;
13034;SDS011;6584;48.022;11.810;2022-07-29T15:21:52;3.83;;;2.25;;
13034;SDS011;6584;48.022;11.810;2022-07-29T15:24:18;2.55;;;2.35;;
13034;SDS011;6584;48.022;11.810;2022-07-29T15:26:44;2.63;;;2.30;;
13034;SDS011;6584;48.022;11.810;2022-07-29T15:29:10;3.10;;;2.58;;
13034;SDS011;6584;48.022;11.810;2022-07-29T15:31:36;4.15;;;2.40;;
13034;SDS011;6584;48.022;11.810;2022-07-29T15:34:01;4.05;;;2.45;;
13034;SDS011;6584;48.022;11.810;2022-07-29T15:36:27;2.17;;;2.08;;